createdAt,value
2023-03-16T00:00:23.076Z,77.20
2023-03-16T00:05:25.892Z,77.01
2023-03-16T00:10:29.251Z,77.15
2023-03-16T00:15:31.130Z,77.54
2023-03-16T00:20:33.600Z,77.60
2023-03-16T00:25:36.853Z,77.75
2023-03-16T00:30:38.596Z,77.69
2023-03-16T00:35:40.300Z,77.69
2023-03-16T00:40:43.386Z,78.56
2023-03-16T00:45:45.204Z,78.79
2023-03-16T00:50:46.951Z,78.80
2023-03-16T00:55:50.096Z,79.18
2023-03-16T01:00:54.308Z,79.19
2023-03-16T01:05:59.979Z,79.22
2023-03-16T01:11:06.388Z,79.87
2023-03-16T01:16:09.263Z,80.45
2023-03-16T01:21:13.701Z,80.97
2023-03-16T01:26:18.049Z,81.06
2023-03-16T01:31:21.688Z,81.08
2023-03-16T01:36:23.546Z,80.87
2023-03-16T01:41:31.148Z,81.19
2023-03-16T01:46:33.248Z,81.50
2023-03-16T01:51:37.907Z,82.01
2023-03-16T01:56:42.348Z,82.20
2023-03-16T02:01:44.175Z,81.99
2023-03-16T02:06:45.988Z,81.90
2023-03-16T02:11:49.106Z,82.57
2023-03-16T02:16:50.948Z,82.63
2023-03-16T02:21:55.305Z,82.21
2023-03-16T02:26:59.457Z,82.24
2023-03-16T02:32:07.505Z,82.17
2023-03-16T02:37:09.287Z,81.97
2023-03-16T02:42:12.347Z,81.71
2023-03-16T02:47:18.101Z,82.09
2023-03-16T02:52:19.983Z,82.32
2023-03-16T02:57:21.915Z,82.60
2023-03-16T03:02:25.495Z,82.71
2023-03-16T03:07:31.791Z,82.81
2023-03-16T03:12:38.241Z,83.62
2023-03-16T03:17:44.292Z,84.05
2023-03-16T03:22:47.789Z,83.38
2023-03-16T03:27:50.115Z,83.54
2023-03-16T03:32:56.682Z,83.25
2023-03-16T03:37:58.590Z,83.60
2023-03-16T03:43:01.486Z,83.47
2023-03-16T03:48:06.109Z,83.55
2023-03-16T03:53:08.839Z,84.06
2023-03-16T03:58:22.668Z,85.24
2023-03-16T04:03:26.004Z,86.16
2023-03-16T04:08:28.291Z,86.09
2023-03-16T04:13:30.141Z,85.52
2023-03-16T04:18:38.507Z,85.22
2023-03-16T04:23:42.568Z,84.73
2023-03-16T04:28:44.349Z,84.28
2023-03-16T04:33:50.813Z,84.65
2023-03-16T04:38:52.943Z,85.03
2023-03-16T04:43:54.731Z,84.98
2023-03-16T04:49:00.315Z,85.67
2023-03-16T04:54:03.699Z,85.96
2023-03-16T04:59:10.690Z,85.00
2023-03-16T05:04:24.537Z,84.75
2023-03-16T05:09:26.566Z,84.46
2023-03-16T05:14:28.334Z,85.06
2023-03-16T05:19:45.274Z,85.33
2023-03-16T05:24:48.345Z,85.69
2023-03-16T05:29:50.335Z,85.13
2023-03-16T05:34:53.534Z,84.63
2023-03-16T05:39:57.636Z,84.00
2023-03-16T05:44:59.662Z,83.69
2023-03-16T05:50:14.187Z,82.90
2023-03-16T05:55:17.787Z,82.03
2023-03-16T06:00:25.780Z,81.67
2023-03-16T06:05:39.764Z,81.42
2023-03-16T06:10:42.133Z,80.24
2023-03-16T06:15:44.281Z,79.81
2023-03-16T06:20:48.580Z,79.41
2023-03-16T06:25:50.530Z,67.22
2023-03-16T06:30:56.486Z,56.81
2023-03-16T06:36:02.642Z,51.21
2023-03-16T06:41:17.746Z,47.48
2023-03-16T06:46:21.434Z,45.29
2023-03-16T06:51:24.757Z,45.09
2023-03-16T06:56:27.879Z,41.41
2023-03-16T07:01:31.819Z,43.47
2023-03-16T07:06:35.186Z,44.00
2023-03-16T07:11:36.997Z,44.16
2023-03-16T07:16:38.767Z,46.07
2023-03-16T07:21:43.804Z,47.52
2023-03-16T07:26:50.021Z,48.34
2023-03-16T07:32:00.601Z,49.17
2023-03-16T07:37:11.641Z,49.40
2023-03-16T07:42:14.614Z,48.49
2023-03-16T07:47:38.682Z,47.11
2023-03-16T07:53:00.540Z,45.45
2023-03-16T07:58:04.929Z,44.49
2023-03-16T08:03:08.630Z,39.36
2023-03-16T08:08:12.497Z,34.75
2023-03-16T08:13:15.430Z,33.86
2023-03-16T08:18:19.348Z,33.08
2023-03-16T08:23:24.136Z,27.83
2023-03-16T08:28:26.273Z,25.03
2023-03-16T08:33:30.015Z,24.33
2023-03-16T08:38:33.665Z,23.14
2023-03-16T08:43:39.417Z,22.23
2023-03-16T08:48:41.680Z,20.59
2023-03-16T08:53:45.244Z,20.04
2023-03-16T08:58:47.168Z,19.08
2023-03-16T09:03:48.890Z,18.94
2023-03-16T09:08:53.419Z,17.51
2023-03-16T09:13:55.101Z,16.59
2023-03-16T09:18:56.797Z,17.43
2023-03-16T09:24:00.234Z,16.73
2023-03-16T09:29:02.168Z,17.27
2023-03-16T09:34:04.818Z,18.76
2023-03-16T09:39:07.889Z,20.06
2023-03-16T09:44:13.668Z,22.44
2023-03-16T09:49:16.576Z,22.80
2023-03-16T09:54:23.576Z,22.11
2023-03-16T09:59:25.444Z,21.49
2023-03-16T10:04:35.612Z,20.07
2023-03-16T10:09:42.484Z,18.30
2023-03-16T10:14:46.977Z,18.50
2023-03-16T10:19:49.822Z,18.25
2023-03-16T10:24:57.905Z,17.49
2023-03-16T10:30:01.175Z,17.36
2023-03-16T10:35:06.091Z,15.93
2023-03-16T10:40:12.718Z,15.49
2023-03-16T10:45:22.990Z,16.11
2023-03-16T10:50:25.340Z,15.51
2023-03-16T10:55:31.142Z,16.62
2023-03-16T11:00:36.079Z,17.01
2023-03-16T11:05:38.205Z,17.67
2023-03-16T11:10:54.726Z,17.66
2023-03-16T11:16:01.581Z,18.25
2023-03-16T11:21:06.742Z,21.51
2023-03-16T11:26:12.675Z,24.96
2023-03-16T11:31:19.983Z,26.00
2023-03-16T11:36:29.922Z,27.83
2023-03-16T11:41:38.207Z,27.20
2023-03-16T11:46:41.920Z,27.95
2023-03-16T11:51:47.363Z,28.25
2023-03-16T11:56:52.739Z,29.70
2023-03-16T12:02:02.664Z,28.45
2023-03-16T12:07:12.168Z,29.15
2023-03-16T12:12:23.086Z,28.52
2023-03-16T12:17:25.732Z,28.63
2023-03-16T12:22:28.395Z,28.44
2023-03-16T12:27:33.236Z,27.94
2023-03-16T12:32:40.982Z,28.87
2023-03-16T12:37:44.621Z,28.26
2023-03-16T12:43:13.900Z,27.33
2023-03-16T12:48:20.393Z,27.71
2023-03-16T12:53:29.008Z,27.75
2023-03-16T12:58:32.940Z,27.63
2023-03-16T13:03:34.720Z,27.41
2023-03-16T13:08:41.253Z,27.26
2023-03-16T13:13:52.517Z,28.61
2023-03-16T13:18:54.789Z,28.01
2023-03-16T13:23:58.347Z,27.65
2023-03-16T13:29:06.324Z,27.13
2023-03-16T13:34:11.748Z,27.29
2023-03-16T13:39:15.370Z,27.96
2023-03-16T13:44:18.697Z,28.71
2023-03-16T13:49:20.469Z,28.15
2023-03-16T13:54:23.887Z,28.71
2023-03-16T13:59:26.930Z,29.58
2023-03-16T14:04:29.757Z,30.36
2023-03-16T14:09:33.140Z,30.32
2023-03-16T14:14:39.346Z,30.37
2023-03-16T14:19:44.366Z,30.49
2023-03-16T14:24:47.935Z,31.20
2023-03-16T14:29:56.838Z,31.54
2023-03-16T14:35:13.022Z,31.78
2023-03-16T14:40:24.245Z,32.24
2023-03-16T14:45:31.648Z,33.51
2023-03-16T14:50:34.579Z,33.59
2023-03-16T14:55:37.544Z,34.30
2023-03-16T15:00:52.251Z,34.01
2023-03-16T15:05:54.994Z,34.71
2023-03-16T15:10:57.269Z,34.70
2023-03-16T15:16:00.640Z,35.32
2023-03-16T15:21:02.812Z,35.98
2023-03-16T15:26:07.374Z,36.72
2023-03-16T15:31:12.335Z,37.52
2023-03-16T15:36:14.907Z,38.51
2023-03-16T15:41:17.016Z,38.94
2023-03-16T15:46:21.211Z,39.49
2023-03-16T15:51:24.537Z,39.88
2023-03-16T15:56:30.152Z,41.24
2023-03-16T16:01:38.260Z,42.00
2023-03-16T16:06:39.920Z,42.62
2023-03-16T16:11:41.639Z,43.30
2023-03-16T16:16:45.805Z,43.69
2023-03-16T16:21:47.857Z,44.30
2023-03-16T16:26:54.371Z,44.83
2023-03-16T16:31:59.019Z,44.54
2023-03-16T16:37:01.163Z,44.64
2023-03-16T16:42:03.165Z,44.51
2023-03-16T16:47:11.164Z,44.92
2023-03-16T16:52:14.315Z,45.03
2023-03-16T16:57:18.243Z,45.45
2023-03-16T17:02:28.379Z,46.03
2023-03-16T17:07:30.733Z,46.16
2023-03-16T17:12:32.435Z,46.92
2023-03-16T17:17:35.805Z,47.25
2023-03-16T17:22:37.507Z,47.69
2023-03-16T17:27:39.261Z,48.03
2023-03-16T17:32:42.319Z,48.86
2023-03-16T17:37:47.286Z,49.12
2023-03-16T17:42:49.102Z,49.89
2023-03-16T17:47:52.910Z,50.01
2023-03-16T17:52:54.737Z,49.82
2023-03-16T17:57:56.422Z,49.42
2023-03-16T18:03:00.793Z,49.17
2023-03-16T18:08:10.699Z,49.62
2023-03-16T18:13:17.782Z,49.64
2023-03-16T18:18:22.316Z,49.96
2023-03-16T18:23:26.193Z,49.98
2023-03-16T18:28:28.710Z,50.02
2023-03-16T18:33:32.758Z,50.46
2023-03-16T18:38:35.672Z,50.70
2023-03-16T18:43:37.578Z,51.04
2023-03-16T18:48:40.605Z,51.19
2023-03-16T18:53:42.898Z,51.67
2023-03-16T18:58:45.706Z,51.57
2023-03-16T19:03:49.630Z,51.77
2023-03-16T19:08:51.570Z,52.39
2023-03-16T19:13:54.700Z,52.31
2023-03-16T19:18:57.839Z,52.05
2023-03-16T19:24:00.794Z,52.14
2023-03-16T19:29:02.741Z,52.39
2023-03-16T19:34:06.020Z,51.94
2023-03-16T19:39:08.305Z,52.08
2023-03-16T19:44:13.976Z,52.19
2023-03-16T19:49:18.284Z,51.87
2023-03-16T19:54:21.739Z,52.11
2023-03-16T19:59:24.419Z,51.98
2023-03-16T20:04:28.060Z,52.49
2023-03-16T20:09:30.023Z,52.62
2023-03-16T20:14:32.465Z,52.97
2023-03-16T20:19:35.501Z,53.18
2023-03-16T20:24:37.242Z,53.12
2023-03-16T20:29:39.415Z,53.71
2023-03-16T20:34:42.457Z,53.48
2023-03-16T20:39:45.120Z,53.61
2023-03-16T20:44:47.578Z,54.32
2023-03-16T20:49:50.880Z,54.09
2023-03-16T20:54:52.605Z,54.32
2023-03-16T20:59:55.337Z,54.24
2023-03-16T21:04:59.258Z,54.27
2023-03-16T21:10:01.378Z,54.21
2023-03-16T21:15:07.974Z,54.29
2023-03-16T21:20:15.927Z,54.07
2023-03-16T21:25:19.443Z,54.41
2023-03-16T21:30:24.590Z,54.32
2023-03-16T21:35:32.306Z,54.52
2023-03-16T21:40:34.221Z,54.96
2023-03-16T21:45:36.009Z,55.55
2023-03-16T21:50:39.501Z,55.52
2023-03-16T21:55:41.357Z,55.60
2023-03-16T22:00:43.208Z,55.86
2023-03-16T22:05:46.404Z,55.86
2023-03-16T22:10:48.323Z,55.92
2023-03-16T22:15:51.554Z,56.31
2023-03-16T22:20:54.672Z,56.43
2023-03-16T22:25:56.472Z,56.79
2023-03-16T22:30:58.728Z,57.00
2023-03-16T22:36:04.823Z,57.36
2023-03-16T22:41:06.642Z,57.67
2023-03-16T22:46:11.590Z,57.96
2023-03-16T22:51:18.876Z,57.90
2023-03-16T22:56:20.664Z,58.52
2023-03-16T23:01:24.275Z,58.38
2023-03-16T23:06:28.365Z,58.23
2023-03-16T23:11:31.339Z,59.13
2023-03-16T23:16:34.111Z,59.29
2023-03-16T23:21:37.840Z,59.71
2023-03-16T23:26:39.730Z,60.28
2023-03-16T23:31:41.604Z,60.72
2023-03-16T23:36:44.675Z,60.26
2023-03-16T23:41:47.743Z,60.39
2023-03-16T23:46:49.440Z,60.55
2023-03-16T23:51:52.503Z,60.76
2023-03-16T23:56:54.273Z,60.71
